Time;durP1;ratioP1;P1;durP2;ratioP2;P2;SDS_P1;SDS_P2;PMS_P1;PMS_P2;Temp;Humidity;BMP_temperature;BMP_pressure;BME280_temperature;BME280_humidity;BME280_pressure;Samples;Min_cycle;Max_cycle;Signal;HPM_P1;HPM_P2
2022/09/01 00:01:49;;;;;;;1.67;1.57;;;;;;;18.35;76.39;100529.13;4995191;28;20456;-51
2022/09/01 00:04:18;;;;;;;1.77;1.67;;;;;;;18.05;77.78;100536.25;4974782;28;20557;-51
2022/09/01 00:06:46;;;;;;;1.73;1.23;;;;;;;18.00;77.77;100532.94;4990475;28;20452;-51
2022/09/01 00:09:16;;;;;;;1.63;1.53;;;;;;;17.98;77.94;100534.84;4979752;28;20827;-51
2022/09/01 00:11:44;;;;;;;6.30;1.90;;;;;;;18.17;77.18;100532.88;4974655;28;21038;-51
2022/09/01 00:14:18;;;;;;;1.17;1.07;;;;;;;17.94;77.43;100531.44;4975062;28;20451;-51
2022/09/01 00:16:55;;;;;;;1.70;1.10;;;;;;;17.89;77.61;100535.34;4974971;28;20456;-51
2022/09/01 00:19:22;;;;;;;2.70;1.70;;;;;;;17.96;77.39;100534.94;4974923;28;20462;-51
2022/09/01 00:21:49;;;;;;;2.30;1.17;;;;;;;17.85;77.83;100531.09;4974639;28;20870;-51
2022/09/01 00:24:16;;;;;;;4.20;1.17;;;;;;;17.92;77.14;100535.19;4974647;28;20457;-51
2022/09/01 00:26:43;;;;;;;1.50;1.30;;;;;;;17.61;78.19;100535.94;4974836;28;20461;-51
2022/09/01 00:29:10;;;;;;;1.40;1.30;;;;;;;17.48;78.71;100533.03;4974717;28;20969;-51
2022/09/01 00:31:37;;;;;;;1.00;1.00;;;;;;;17.46;78.98;100535.81;4974500;28;20494;-51
2022/09/01 00:34:03;;;;;;;1.30;1.20;;;;;;;17.42;78.84;100528.88;4974631;28;20454;-51
2022/09/01 00:36:30;;;;;;;15.53;1.20;;;;;;;17.35;79.38;100523.91;4974358;28;20944;-51
2022/09/01 00:39:02;;;;;;;0.90;0.80;;;;;;;17.28;79.53;100518.00;4974713;28;20446;-51
2022/09/01 00:41:32;;;;;;;1.13;1.03;;;;;;;17.04;80.22;100512.06;4974597;28;20974;-51
2022/09/01 00:44:06;;;;;;;0.73;0.50;;;;;;;17.03;80.07;100522.91;4974464;28;20461;-50
2022/09/01 00:46:39;;;;;;;1.33;1.23;;;;;;;16.94;80.38;100528.72;4973793;28;20475;-50
2022/09/01 00:49:34;;;;;;;0.80;0.67;;;;;;;16.99;80.75;100524.84;4974372;28;20450;-50
2022/09/01 00:52:07;;;;;;;3.93;1.10;;;;;;;17.02;80.94;100521.16;4974299;28;20494;-50
2022/09/01 00:54:38;;;;;;;1.17;1.07;;;;;;;17.22;80.17;100517.44;4974131;28;20480;-50
2022/09/01 00:57:08;;;;;;;1.23;1.03;;;;;;;17.12;80.21;100512.53;4974624;28;20450;-50
2022/09/01 00:59:39;;;;;;;1.97;1.30;;;;;;;16.78;81.16;100518.78;4984073;28;20448;-50
2022/09/01 01:02:06;;;;;;;1.00;0.60;;;;;;;16.80;81.51;100516.88;4988890;28;20453;-50
2022/09/01 01:04:32;;;;;;;1.30;1.20;;;;;;;16.83;81.04;100515.84;4974033;28;20483;-50
2022/09/01 01:07:02;;;;;;;1.03;0.90;;;;;;;16.99;81.19;100511.41;4993073;28;20466;-51
2022/09/01 01:09:33;;;;;;;1.00;0.80;;;;;;;17.04;80.93;100508.53;4974458;28;20446;-51
2022/09/01 01:12:03;;;;;;;2.17;1.00;;;;;;;17.16;80.50;100505.19;4973784;28;20486;-51
2022/09/01 01:14:30;;;;;;;1.83;1.30;;;;;;;17.13;80.46;100511.59;4974063;28;20813;-51
2022/09/01 01:16:58;;;;;;;1.00;0.80;;;;;;;16.84;82.32;100515.75;4974068;28;20541;-51
2022/09/01 01:25:24;;;;;;;0.80;0.67;;;;;;;17.06;81.34;100507.47;4993192;28;20473;-51
2022/09/01 01:27:50;;;;;;;1.13;1.03;;;;;;;16.98;81.17;100503.44;4993151;28;20453;-51
2022/09/01 01:30:19;;;;;;;0.70;0.60;;;;;;;16.81;81.49;100510.56;4992871;28;20493;-51
2022/09/01 01:32:46;;;;;;;2.03;1.93;;;;;;;16.56;82.36;100501.97;4992892;28;20584;-51
2022/09/01 01:35:15;;;;;;;1.63;1.53;;;;;;;16.47;82.50;100508.66;4992960;28;20564;-51
2022/09/01 01:37:47;;;;;;;1.07;0.97;;;;;;;16.49;82.84;100505.91;4992853;28;20448;-50
2022/09/01 01:40:17;;;;;;;5.60;1.17;;;;;;;16.48;82.85;100510.41;4992942;28;20500;-51
2022/09/01 01:42:45;;;;;;;1.00;0.90;;;;;;;16.26;83.45;100513.25;4992903;28;20539;-51
2022/09/01 01:45:18;;;;;;;0.77;0.77;;;;;;;16.51;82.69;100512.06;4992565;28;20884;-51
2022/09/01 01:47:52;;;;;;;0.60;0.60;;;;;;;16.48;82.31;100514.91;4992970;28;20484;-51
2022/09/01 01:50:34;;;;;;;1.17;1.07;;;;;;;16.38;82.85;100521.66;4992978;28;20820;-51
2022/09/01 01:53:03;;;;;;;1.30;0.93;;;;;;;15.88;83.86;100516.88;4992870;28;20911;-51
2022/09/01 01:55:37;;;;;;;5.00;0.83;;;;;;;16.10;83.39;100524.81;4992504;28;20473;-50
2022/09/01 01:58:03;;;;;;;1.10;1.00;;;;;;;16.18;83.17;100526.19;4995170;28;20460;-51
2022/09/01 02:00:33;;;;;;;1.63;1.47;;;;;;;16.41;82.82;100518.81;4996912;28;20947;-51
2022/09/01 02:03:00;;;;;;;0.87;0.87;;;;;;;16.16;83.19;100524.50;4977465;28;20450;-50
2022/09/01 02:05:32;;;;;;;2.83;0.80;;;;;;;16.16;83.13;100527.19;4977092;28;20923;-50
2022/09/01 02:08:03;;;;;;;1.30;0.90;;;;;;;16.21;82.99;100520.66;4998218;28;20466;-51
2022/09/01 02:10:35;;;;;;;1.57;1.40;;;;;;;16.03;83.89;100526.03;4977227;28;20450;-50
2022/09/01 02:13:05;;;;;;;0.80;0.77;;;;;;;16.28;82.82;100522.09;4977362;28;20501;-51
2022/09/01 02:15:37;;;;;;;0.73;0.60;;;;;;;16.20;83.38;100518.94;4976851;28;20923;-51
2022/09/01 02:18:04;;;;;;;3.80;0.90;;;;;;;16.15;83.07;100512.03;4977193;28;20450;-51
2022/09/01 02:20:31;;;;;;;0.90;0.70;;;;;;;16.21;82.84;100519.78;4976878;28;20541;-51
2022/09/01 02:23:08;;;;;;;1.40;1.20;;;;;;;16.03;83.55;100517.97;4976759;28;20973;-51
2022/09/01 02:25:42;;;;;;;1.93;0.93;;;;;;;16.16;83.46;100514.63;4976931;28;21012;-50
2022/09/01 02:28:31;;;;;;;6.30;0.87;;;;;;;15.78;84.42;100519.16;4976802;28;20951;-51
2022/09/01 02:30:58;;;;;;;1.10;1.00;;;;;;;15.62;85.08;100523.44;4975662;28;20498;-50
2022/09/01 02:33:27;;;;;;;1.20;1.00;;;;;;;15.74;85.12;100513.97;4976653;28;20497;-51
2022/09/01 02:35:57;;;;;;;1.63;0.67;;;;;;;15.76;84.67;100510.31;4976855;28;20474;-50
2022/09/01 02:38:28;;;;;;;1.23;1.13;;;;;;;15.65;84.74;100510.81;4976662;28;20549;-51
2022/09/01 02:40:57;;;;;;;1.20;0.80;;;;;;;15.50;84.76;100508.78;4976787;28;20909;-51
2022/09/01 02:43:27;;;;;;;0.70;0.60;;;;;;;15.55;85.30;100513.94;4976546;28;20446;-50
2022/09/01 02:45:58;;;;;;;1.27;1.17;;;;;;;15.80;84.25;100497.63;5001699;23;20516;-50
2022/09/01 02:48:44;;;;;;;1.07;0.97;;;;;;;15.64;84.83;100501.03;4995951;28;20449;-50
2022/09/01 02:51:15;;;;;;;0.70;0.60;;;;;;;15.37;85.00;100502.25;4995662;28;20503;-49
2022/09/01 02:53:43;;;;;;;1.13;1.03;;;;;;;15.30;85.63;100506.13;4995749;28;20497;-50
2022/09/01 02:56:13;;;;;;;1.73;1.63;;;;;;;15.42;85.31;100508.25;4980017;28;20477;-49
2022/09/01 02:58:47;;;;;;;1.67;0.87;;;;;;;15.35;84.71;100510.34;4976201;28;20833;-49
2022/09/01 03:01:28;;;;;;;1.47;1.37;;;;;;;15.44;84.47;100501.00;5002495;28;20450;-49
2022/09/01 03:03:59;;;;;;;0.70;0.60;;;;;;;15.45;85.08;100500.06;4974965;28;20473;-49
2022/09/01 03:06:27;;;;;;;3.00;1.20;;;;;;;15.34;85.63;100488.97;4986099;28;20472;-50
2022/09/01 03:08:58;;;;;;;0.80;0.70;;;;;;;15.40;85.55;100499.41;4984541;28;20456;-49
2022/09/01 03:11:28;;;;;;;0.80;0.77;;;;;;;15.25;85.77;100497.44;4976110;28;20869;-50
2022/09/01 03:13:55;;;;;;;1.33;1.23;;;;;;;15.25;85.89;100509.00;4976014;28;20498;-50
2022/09/01 03:16:22;;;;;;;0.73;0.70;;;;;;;14.99;87.00;100511.97;4975945;28;20478;-50
2022/09/01 03:18:50;;;;;;;6.07;1.70;;;;;;;14.98;86.81;100503.06;4975878;28;20528;-51
2022/09/01 03:21:17;;;;;;;0.70;0.60;;;;;;;14.91;86.91;100501.56;4974580;28;20454;-50
2022/09/01 03:23:45;;;;;;;0.77;0.70;;;;;;;14.88;87.17;100499.03;4975643;28;20446;-50
2022/09/01 03:26:13;;;;;;;5.50;0.80;;;;;;;15.19;86.76;100500.38;4975955;28;20478;-50
2022/09/01 03:28:40;;;;;;;0.90;0.80;;;;;;;14.91;87.52;100506.06;4974586;28;20504;-50
2022/09/01 03:31:07;;;;;;;0.90;0.80;;;;;;;14.79;87.62;100505.63;4975648;28;20454;-50
2022/09/01 03:33:35;;;;;;;1.50;1.40;;;;;;;14.82;87.39;100502.84;4975330;28;20939;-51
2022/09/01 03:36:03;;;;;;;0.80;0.63;;;;;;;14.67;87.61;100499.97;4975762;28;20478;-50
2022/09/01 03:38:30;;;;;;;3.10;1.10;;;;;;;14.65;87.99;100502.66;4975543;28;20451;-51
2022/09/01 03:41:01;;;;;;;1.23;0.80;;;;;;;14.56;89.15;100500.41;4975704;28;20469;-51
2022/09/01 03:43:29;;;;;;;2.07;1.97;;;;;;;14.65;89.34;100507.16;4975384;28;20453;-51
2022/09/01 03:46:02;;;;;;;2.53;1.23;;;;;;;14.78;88.32;100505.69;4975062;28;20521;-51
2022/09/01 03:48:30;;;;;;;0.80;0.67;;;;;;;14.69;88.85;100500.75;4975268;28;20978;-51
2022/09/01 03:51:01;;;;;;;1.30;1.20;;;;;;;14.65;89.18;100507.16;4975169;28;20996;-50
2022/09/01 03:53:32;;;;;;;1.37;1.27;;;;;;;14.46;89.26;100507.06;4974222;28;20552;-51
2022/09/01 03:55:59;;;;;;;2.70;0.80;;;;;;;14.61;89.33;100506.41;4975201;28;20470;-51
2022/09/01 03:58:25;;;;;;;2.50;1.13;;;;;;;14.42;89.93;100500.94;4975180;28;20462;-51
2022/09/01 04:00:57;;;;;;;1.83;1.73;;;;;;;14.29;90.34;100506.84;5001456;28;20877;-51
2022/09/01 04:03:26;;;;;;;1.10;0.97;;;;;;;14.12;90.43;100504.84;4975127;28;20454;-50
2022/09/01 04:05:58;;;;;;;0.87;0.73;;;;;;;14.29;90.69;100507.72;4976958;28;20899;-51
2022/09/01 04:08:29;;;;;;;0.93;0.93;;;;;;;14.52;89.88;100502.31;4992706;28;20801;-51
2022/09/01 04:11:02;;;;;;;1.10;0.80;;;;;;;14.24;90.44;100504.34;4974884;28;20454;-51
2022/09/01 04:13:34;;;;;;;15.33;1.13;;;;;;;14.32;90.31;100498.69;4974703;28;21022;-51
2022/09/01 04:16:01;;;;;;;5.20;1.93;;;;;;;14.23;90.50;100503.47;4975004;28;20474;-50
2022/09/01 04:18:29;;;;;;;2.97;1.27;;;;;;;14.27;90.35;100506.91;4974883;28;20454;-51
2022/09/01 04:20:58;;;;;;;0.97;0.97;;;;;;;14.41;89.91;100504.53;4973769;28;20450;-50
2022/09/01 04:23:32;;;;;;;1.00;0.83;;;;;;;14.14;90.61;100506.53;4974542;28;20454;-50
2022/09/01 04:26:13;;;;;;;1.30;1.20;;;;;;;14.64;89.20;100513.44;4974856;28;20478;-50
2022/09/01 04:28:44;;;;;;;3.30;1.43;;;;;;;14.56;88.45;100512.91;4974675;28;20446;-50
2022/09/01 04:31:19;;;;;;;0.77;0.77;;;;;;;14.38;89.26;100504.66;4974653;28;20455;-50
2022/09/01 04:33:51;;;;;;;0.93;0.83;;;;;;;14.06;90.57;100505.06;4974489;28;20510;-51
2022/09/01 04:36:32;;;;;;;1.60;1.50;;;;;;;14.10;90.34;100507.56;4974220;28;20470;-50
2022/09/01 04:39:00;;;;;;;1.30;1.00;;;;;;;13.98;91.17;100504.50;4974433;28;20963;-50
2022/09/01 04:41:30;;;;;;;1.50;1.13;;;;;;;14.13;90.74;100510.13;4974283;28;20451;-51
2022/09/01 04:44:00;;;;;;;1.00;0.90;;;;;;;13.98;91.58;100513.41;4974420;28;20541;-50
2022/09/01 04:46:30;;;;;;;1.10;1.00;;;;;;;13.98;91.56;100512.50;4973990;28;20478;-50
2022/09/01 04:48:57;;;;;;;2.50;1.43;;;;;;;13.98;91.91;100505.41;4974560;28;20478;-50
2022/09/01 04:51:26;;;;;;;1.43;1.33;;;;;;;13.98;91.88;100515.19;4974110;28;20815;-50
2022/09/01 04:53:56;;;;;;;1.80;1.70;;;;;;;14.02;91.82;100515.03;4973996;28;20608;-50
2022/09/01 04:56:25;;;;;;;1.03;0.90;;;;;;;14.04;91.13;100509.63;4973824;28;20871;-50
2022/09/01 04:58:55;;;;;;;10.00;2.13;;;;;;;13.90;92.18;100512.81;4973973;28;20453;-51
2022/09/01 05:01:24;;;;;;;1.80;1.70;;;;;;;13.95;91.82;100510.84;5000263;28;20460;-50
2022/09/01 05:04:00;;;;;;;3.40;1.50;;;;;;;14.10;91.87;100514.72;4974261;28;20489;-50
2022/09/01 05:06:32;;;;;;;2.33;1.00;;;;;;;14.01;92.25;100507.94;4984989;28;20987;-50
2022/09/01 05:08:59;;;;;;;15.83;2.60;;;;;;;14.19;91.67;100512.56;4982132;28;20450;-51
2022/09/01 05:11:26;;;;;;;13.13;1.03;;;;;;;14.15;91.93;100513.63;4973975;28;20461;-50
2022/09/01 05:13:56;;;;;;;0.87;0.80;;;;;;;14.08;92.29;100511.22;4973887;28;20496;-50
2022/09/01 05:16:26;;;;;;;0.60;0.50;;;;;;;14.26;91.74;100520.34;4973646;28;20986;-50
2022/09/01 05:18:55;;;;;;;1.63;1.53;;;;;;;14.15;92.04;100515.41;4973826;28;20486;-50
2022/09/01 05:21:27;;;;;;;1.40;1.20;;;;;;;14.45;91.21;100508.84;4973741;28;20906;-50
2022/09/01 05:23:55;;;;;;;1.93;1.50;;;;;;;14.48;90.35;100511.41;4973666;28;20450;-50
2022/09/01 05:26:25;;;;;;;2.00;1.37;;;;;;;14.58;90.67;100513.72;4973914;28;20470;-50
2022/09/01 05:28:55;;;;;;;1.33;1.20;;;;;;;14.62;90.87;100513.50;4973707;28;20530;-50
2022/09/01 05:31:23;;;;;;;1.50;1.40;;;;;;;14.70;90.24;100507.84;4973485;28;20456;-50
2022/09/01 05:33:50;;;;;;;5.97;1.50;;;;;;;14.68;90.67;100512.41;4973427;28;21018;-49
2022/09/01 05:36:21;;;;;;;1.37;1.27;;;;;;;14.81;90.11;100514.50;4972285;28;20481;-50
2022/09/01 05:38:51;;;;;;;2.40;1.27;;;;;;;14.94;89.61;100514.84;4973508;28;20456;-50
2022/09/01 05:41:19;;;;;;;1.33;1.23;;;;;;;15.02;89.59;100506.47;4973450;28;20956;-50
2022/09/01 05:43:49;;;;;;;8.90;1.93;;;;;;;15.20;88.54;100511.00;4973491;28;20534;-50
2022/09/01 05:46:19;;;;;;;1.83;1.70;;;;;;;15.54;87.46;100510.38;4973246;28;21003;-51
2022/09/01 05:48:48;;;;;;;1.87;1.77;;;;;;;15.98;85.90;100510.16;4973446;28;20454;-51
2022/09/01 05:51:18;;;;;;;3.27;1.97;;;;;;;16.14;84.80;100499.56;4973183;28;20458;-50
2022/09/01 05:54:08;;;;;;;1.17;1.07;;;;;;;16.08;84.49;100508.78;4973558;28;20482;-50
2022/09/01 05:56:38;;;;;;;1.80;1.67;;;;;;;16.39;84.00;100500.13;4973420;28;20470;-51
2022/09/01 05:59:10;;;;;;;2.30;1.57;;;;;;;16.47;84.14;100506.00;4976860;28;20450;-50
2022/09/01 06:01:53;;;;;;;9.40;1.50;;;;;;;16.72;83.16;100507.44;4992201;28;20450;-51
2022/09/01 06:04:21;;;;;;;1.73;1.63;;;;;;;16.61;83.77;100502.63;4972100;28;20501;-51
2022/09/01 06:06:48;;;;;;;1.47;1.37;;;;;;;16.73;83.50;100501.16;4989426;28;20460;-50
2022/09/01 06:09:37;;;;;;;4.10;1.80;;;;;;;16.88;83.50;100506.63;4973769;28;20458;-50
2022/09/01 06:12:04;;;;;;;1.20;1.10;;;;;;;17.13;83.22;100508.91;4973280;28;20537;-51
2022/09/01 06:14:31;;;;;;;1.57;1.47;;;;;;;17.17;82.78;100507.81;4973003;28;20496;-51
2022/09/01 06:16:57;;;;;;;1.73;1.63;;;;;;;17.23;82.47;100503.91;4973189;28;20558;-51
2022/09/01 06:19:24;;;;;;;2.20;1.37;;;;;;;17.39;81.92;100512.03;4973280;28;20460;-51
2022/09/01 06:21:50;;;;;;;5.63;1.50;;;;;;;17.69;81.05;100509.56;4973137;28;20481;-51
2022/09/01 06:24:17;;;;;;;1.43;1.33;;;;;;;17.72;81.60;100515.63;4973098;28;20452;-51
2022/09/01 06:26:45;;;;;;;11.27;1.40;;;;;;;17.93;80.83;100510.00;4973044;28;20484;-50
2022/09/01 06:29:14;;;;;;;1.00;0.70;;;;;;;17.83;81.57;100506.13;4973315;28;20450;-51
2022/09/01 06:31:50;;;;;;;1.10;0.80;;;;;;;17.87;81.23;100511.22;4973220;28;20505;-50
2022/09/01 06:34:17;;;;;;;2.70;0.80;;;;;;;17.85;81.19;100513.16;4973389;28;20497;-50
2022/09/01 06:36:46;;;;;;;0.90;0.70;;;;;;;17.77;81.58;100513.56;4973012;28;20828;-50
2022/09/01 06:39:18;;;;;;;0.80;0.53;;;;;;;17.65;81.57;100519.56;4973010;28;20458;-51
2022/09/01 06:41:48;;;;;;;1.83;1.23;;;;;;;17.92;81.29;100517.22;4972983;28;20461;-50
2022/09/01 06:44:21;;;;;;;0.90;0.90;;;;;;;17.87;81.31;100513.06;4975428;28;20454;-51
2022/09/01 06:46:51;;;;;;;0.90;0.80;;;;;;;17.89;81.14;100516.53;4976648;28;20529;-51
2022/09/01 06:49:20;;;;;;;1.20;0.87;;;;;;;17.91;81.37;100512.78;4976768;28;20931;-50
2022/09/01 06:51:48;;;;;;;1.60;1.40;;;;;;;18.06;80.69;100519.13;4976533;28;20457;-51
2022/09/01 06:54:16;;;;;;;0.80;0.70;;;;;;;18.00;80.92;100519.50;4976420;28;20544;-51
2022/09/01 06:56:46;;;;;;;0.60;0.50;;;;;;;18.24;80.19;100520.81;4976584;28;20457;-50
2022/09/01 06:59:18;;;;;;;1.40;1.00;;;;;;;18.43;79.32;100526.00;4981670;28;21036;-51
2022/09/01 07:01:47;;;;;;;0.60;0.40;;;;;;;18.30;80.16;100523.16;4996671;28;20461;-51
2022/09/01 07:04:18;;;;;;;0.87;0.87;;;;;;;18.09;80.10;100532.41;4976077;28;20943;-50
2022/09/01 07:06:51;;;;;;;0.63;0.50;;;;;;;18.37;79.46;100529.06;4990346;28;20456;-50
2022/09/01 07:09:28;;;;;;;9.90;1.40;;;;;;;18.39;79.12;100527.16;4976687;28;20522;-51
2022/09/01 07:12:18;;;;;;;0.60;0.57;;;;;;;18.37;79.81;100538.97;4976356;28;20545;-51
2022/09/01 07:14:54;;;;;;;1.00;1.00;;;;;;;18.60;79.03;100533.97;4976087;28;20584;-51
2022/09/01 07:17:42;;;;;;;0.80;0.80;;;;;;;18.50;78.09;100538.19;4975789;28;20442;-50
2022/09/01 07:20:10;;;;;;;2.30;0.63;;;;;;;18.35;78.93;100544.41;4975912;28;20459;-51
2022/09/01 07:22:54;;;;;;;1.10;0.80;;;;;;;18.40;78.70;100536.97;4975829;28;20450;-51
2022/09/01 07:25:31;;;;;;;5.23;1.53;;;;;;;18.49;78.52;100539.09;4975967;28;20553;-51
2022/09/01 07:28:18;;;;;;;6.43;0.80;;;;;;;18.52;78.21;100543.47;4975873;28;20465;-51
2022/09/01 07:30:55;;;;;;;0.70;0.70;;;;;;;18.66;77.83;100554.34;4975806;28;20517;-51
2022/09/01 07:33:23;;;;;;;0.80;0.70;;;;;;;18.62;77.63;100539.28;4975535;28;20848;-51
2022/09/01 07:36:10;;;;;;;1.00;0.90;;;;;;;18.80;77.63;100545.47;4975473;28;20865;-50
2022/09/01 07:38:53;;;;;;;10.37;1.70;;;;;;;18.67;77.87;100539.06;4975754;28;20455;-51
2022/09/01 07:41:41;;;;;;;2.77;1.27;;;;;;;18.79;77.60;100549.13;4976375;28;20450;-51
2022/09/01 07:44:27;;;;;;;0.77;0.77;;;;;;;18.92;76.92;100551.00;4975112;28;20455;-52
2022/09/01 07:46:53;;;;;;;0.90;0.80;;;;;;;18.99;76.48;100561.41;4975702;28;20457;-51
2022/09/01 07:49:40;;;;;;;1.70;1.60;;;;;;;18.86;76.85;100553.19;4975462;28;20454;-50
2022/09/01 07:52:28;;;;;;;1.83;1.20;;;;;;;19.08;76.41;100558.19;4975304;28;20465;-51
2022/09/01 07:54:54;;;;;;;0.80;0.80;;;;;;;19.14;76.53;100557.81;4975109;28;20502;-51
2022/09/01 07:57:21;;;;;;;1.20;1.00;;;;;;;19.12;76.04;100557.03;4975219;28;20975;-51
2022/09/01 07:59:52;;;;;;;1.00;0.90;;;;;;;19.02;76.54;100548.63;4989012;28;20455;-51
2022/09/01 08:02:19;;;;;;;1.03;1.00;;;;;;;19.21;76.15;100561.88;4986232;28;20454;-51
2022/09/01 08:04:45;;;;;;;3.30;3.20;;;;;;;19.35;76.18;100555.66;4974951;28;20553;-51
2022/09/01 08:07:13;;;;;;;1.23;0.97;;;;;;;19.24;75.91;100557.16;4996305;28;20460;-50
2022/09/01 08:09:41;;;;;;;2.00;1.00;;;;;;;19.25;76.20;100568.81;4975189;28;20904;-51
2022/09/01 08:12:09;;;;;;;1.20;1.10;;;;;;;19.28;76.71;100565.06;4975046;28;20960;-51
2022/09/01 08:14:36;;;;;;;0.80;0.70;;;;;;;19.36;75.98;100566.34;4974848;28;20494;-51
2022/09/01 08:17:04;;;;;;;1.67;1.40;;;;;;;19.69;75.06;100568.81;4974820;28;20461;-51
2022/09/01 08:19:52;;;;;;;2.13;1.60;;;;;;;19.79;75.29;100564.59;4973766;28;20481;-51
2022/09/01 08:22:22;;;;;;;6.50;0.90;;;;;;;19.85;75.34;100574.13;4973553;28;20970;-51
2022/09/01 08:24:50;;;;;;;4.03;1.93;;;;;;;19.72;75.06;100576.72;4975047;28;20524;-51
2022/09/01 08:27:17;;;;;;;2.57;1.27;;;;;;;19.85;75.00;100576.81;4975022;28;20461;-51
2022/09/01 08:29:43;;;;;;;4.60;1.40;;;;;;;20.02;74.24;100575.78;4974493;28;20476;-51
2022/09/01 08:32:10;;;;;;;1.23;1.07;;;;;;;20.03;74.22;100572.13;4974709;28;20832;-51
2022/09/01 08:34:37;;;;;;;1.07;0.97;;;;;;;20.03;74.17;100574.81;4974482;28;20498;-51
2022/09/01 08:37:05;;;;;;;1.47;0.93;;;;;;;20.15;73.45;100573.16;4974603;28;20450;-51
2022/09/01 08:39:31;;;;;;;2.20;1.50;;;;;;;20.49;72.47;100566.50;4974396;28;20461;-51
2022/09/01 08:42:13;;;;;;;0.77;0.77;;;;;;;20.57;72.18;100564.16;4974347;28;20450;-51
2022/09/01 08:44:49;;;;;;;1.33;1.23;;;;;;;20.64;71.90;100573.59;4974730;28;20565;-51
2022/09/01 08:47:18;;;;;;;0.70;0.70;;;;;;;20.54;72.57;100561.66;4974331;28;20454;-51
2022/09/01 08:49:57;;;;;;;1.33;1.23;;;;;;;20.62;71.89;100564.72;4974530;28;20585;-51
2022/09/01 08:52:31;;;;;;;1.10;1.00;;;;;;;20.90;71.90;100563.75;4974135;28;20982;-51
2022/09/01 08:55:07;;;;;;;1.77;1.67;;;;;;;21.10;70.48;100570.50;4974182;28;20494;-52
2022/09/01 08:57:38;;;;;;;2.60;1.70;;;;;;;21.19;71.05;100559.06;4974075;28;20450;-51
2022/09/01 09:00:12;;;;;;;1.73;1.40;;;;;;;21.63;69.76;100561.44;4992166;28;20441;-51
2022/09/01 09:02:52;;;;;;;0.83;0.83;;;;;;;21.71;69.38;100558.19;4979462;28;20934;-51
2022/09/01 09:05:47;;;;;;;1.60;1.50;;;;;;;21.49;69.97;100561.53;4973896;28;20497;-51
2022/09/01 09:08:22;;;;;;;4.00;0.90;;;;;;;21.84;68.43;100559.06;4974159;28;20454;-51
2022/09/01 09:11:03;;;;;;;1.33;1.23;;;;;;;21.42;70.11;100562.94;4973836;28;20450;-51
2022/09/01 09:13:32;;;;;;;1.30;1.20;;;;;;;21.74;68.58;100557.97;4973899;28;20509;-51
2022/09/01 09:16:16;;;;;;;1.63;1.20;;;;;;;22.03;67.57;100564.88;4973878;28;20478;-51
2022/09/01 09:18:59;;;;;;;5.53;1.37;;;;;;;21.88;67.42;100569.56;4973990;28;20458;-51
2022/09/01 09:21:35;;;;;;;1.20;1.10;;;;;;;22.07;66.71;100552.06;4973767;28;20446;-51
2022/09/01 09:24:26;;;;;;;1.13;1.03;;;;;;;21.96;67.07;100569.03;4973940;28;20446;-51
2022/09/01 09:27:04;;;;;;;2.20;1.90;;;;;;;21.47;68.50;100558.94;4973886;28;20446;-51
2022/09/01 09:29:32;;;;;;;1.30;1.20;;;;;;;21.68;67.72;100559.28;4973625;28;21023;-51
2022/09/01 09:32:07;;;;;;;4.50;1.50;;;;;;;21.52;68.15;100564.06;4974827;28;20461;-51
2022/09/01 09:34:48;;;;;;;2.80;1.20;;;;;;;21.32;68.37;100570.81;4974928;28;20497;-51
2022/09/01 09:37:15;;;;;;;1.57;1.47;;;;;;;21.41;68.60;100563.91;4973632;28;20457;-51
2022/09/01 09:39:42;;;;;;;2.30;2.03;;;;;;;21.41;68.20;100556.69;4974201;28;20464;-51
2022/09/01 09:42:14;;;;;;;2.30;1.30;;;;;;;21.80;67.56;100554.84;4973460;28;20943;-51
2022/09/01 09:44:47;;;;;;;2.40;1.07;;;;;;;21.72;67.03;100551.81;4973851;28;20462;-51
2022/09/01 09:47:42;;;;;;;8.63;0.90;;;;;;;21.65;66.60;100550.50;4973955;28;20451;-51
2022/09/01 09:50:16;;;;;;;1.57;1.47;;;;;;;21.92;66.32;100545.84;4973469;28;20447;-51
2022/09/01 09:52:45;;;;;;;1.20;1.00;;;;;;;21.94;66.34;100545.75;4973211;28;20458;-51
2022/09/01 09:55:26;;;;;;;1.20;1.10;;;;;;;21.88;66.15;100541.63;4973221;28;21035;-51
2022/09/01 09:57:58;;;;;;;1.13;1.03;;;;;;;22.04;66.14;100544.97;4973286;28;20541;-51
2022/09/01 10:00:33;;;;;;;1.40;1.30;;;;;;;22.12;65.99;100534.47;4996737;28;20451;-51
2022/09/01 10:03:11;;;;;;;1.17;1.07;;;;;;;22.12;65.52;100533.63;4999231;28;21009;-51
2022/09/01 10:05:40;;;;;;;1.20;1.10;;;;;;;22.53;64.92;100527.88;4973377;28;20556;-51
2022/09/01 10:08:33;;;;;;;0.93;0.80;;;;;;;22.53;64.71;100524.28;4983460;28;20974;-51
2022/09/01 10:11:00;;;;;;;1.30;1.17;;;;;;;22.30;64.35;100524.13;4966621;28;20532;-51
2022/09/01 10:13:30;;;;;;;1.30;1.20;;;;;;;22.33;64.79;100523.91;4973372;28;20949;-51
2022/09/01 10:16:06;;;;;;;1.77;1.67;;;;;;;22.56;63.44;100537.59;4972914;28;20563;-51
2022/09/01 10:18:41;;;;;;;2.40;1.63;;;;;;;22.57;63.65;100518.50;4974815;28;20450;-51
2022/09/01 10:21:22;;;;;;;2.60;1.73;;;;;;;22.60;63.68;100512.00;4977024;28;20485;-51
2022/09/01 10:23:49;;;;;;;2.50;1.03;;;;;;;22.79;62.14;100516.91;4977184;28;20473;-51
2022/09/01 10:26:23;;;;;;;1.40;1.30;;;;;;;23.08;61.44;100534.56;4976691;28;20482;-51
2022/09/01 10:28:53;;;;;;;3.63;1.17;;;;;;;22.82;61.58;100527.50;4976979;28;20450;-51
2022/09/01 10:31:21;;;;;;;1.77;1.67;;;;;;;22.66;61.84;100523.25;4976852;28;20454;-50
2022/09/01 10:33:48;;;;;;;1.40;1.30;;;;;;;23.01;61.22;100523.31;4976572;28;20534;-51
2022/09/01 10:36:16;;;;;;;2.87;1.60;;;;;;;23.11;60.86;100526.19;4976886;28;20470;-51
2022/09/01 10:38:42;;;;;;;3.00;1.77;;;;;;;22.64;62.30;100521.66;4976346;28;20450;-50
2022/09/01 10:41:42;;;;;;;0.97;0.87;;;;;;;22.80;61.54;100518.63;4976511;28;20454;-51
2022/09/01 10:44:16;;;;;;;2.53;1.30;;;;;;;23.02;61.23;100518.75;4976509;28;20450;-51
2022/09/01 10:46:45;;;;;;;5.07;1.13;;;;;;;23.17;61.31;100530.28;4976303;28;20516;-51
2022/09/01 10:49:26;;;;;;;1.13;0.90;;;;;;;23.15;61.58;100518.66;4976333;28;20501;-50
2022/09/01 10:51:56;;;;;;;1.40;1.30;;;;;;;23.06;60.93;100512.13;4976714;28;20460;-51
2022/09/01 10:54:55;;;;;;;3.63;1.73;;;;;;;23.97;59.93;100508.56;4976359;28;20489;-51
2022/09/01 10:57:29;;;;;;;1.60;1.33;;;;;;;23.81;59.39;100501.66;4976351;28;21004;-51
2022/09/01 11:00:34;;;;;;;1.07;0.90;;;;;;;24.01;58.89;100501.94;4992049;28;20459;-51
2022/09/01 11:03:11;;;;;;;3.97;1.23;;;;;;;23.65;59.50;100503.88;4976278;28;20458;-51
2022/09/01 11:05:59;;;;;;;2.30;1.20;;;;;;;23.43;60.64;100503.81;4977050;28;20466;-51
2022/09/01 11:08:46;;;;;;;1.50;1.37;;;;;;;24.15;58.50;100494.38;4983308;28;20457;-51
2022/09/01 11:11:38;;;;;;;1.47;1.37;;;;;;;23.80;59.05;100502.66;4975221;28;20453;-51
2022/09/01 11:14:20;;;;;;;1.70;1.50;;;;;;;23.70;59.10;100495.38;4976020;28;20470;-51
2022/09/01 11:17:25;;;;;;;0.97;0.90;;;;;;;24.16;58.43;100492.53;4976212;28;20849;-51
2022/09/01 11:20:08;;;;;;;2.17;1.33;;;;;;;23.83;58.67;100487.97;4975981;28;20477;-51
2022/09/01 11:22:57;;;;;;;7.73;2.00;;;;;;;23.89;58.16;100492.91;4975842;28;20541;-50
2022/09/01 11:25:32;;;;;;;1.83;1.73;;;;;;;23.48;58.54;100501.63;4975904;28;20470;-50
2022/09/01 11:28:08;;;;;;;1.73;0.80;;;;;;;23.83;57.78;100482.53;4975760;28;21020;-50
2022/09/01 11:30:49;;;;;;;10.40;1.27;;;;;;;24.02;57.32;100482.78;4975182;28;20455;-51
2022/09/01 11:33:15;;;;;;;9.00;1.40;;;;;;;23.84;58.15;100485.13;4975918;28;20454;-50
2022/09/01 11:35:44;;;;;;;2.60;2.40;;;;;;;23.99;57.51;100487.63;4975722;28;20494;-51
2022/09/01 11:38:15;;;;;;;1.50;1.40;;;;;;;24.26;56.21;100474.47;4978338;28;20465;-51
2022/09/01 11:40:42;;;;;;;1.47;1.37;;;;;;;23.68;57.17;100478.34;4995150;28;20532;-51
2022/09/01 11:43:14;;;;;;;1.20;1.07;;;;;;;24.13;56.29;100477.34;4994873;28;20457;-51
2022/09/01 11:46:01;;;;;;;1.20;1.10;;;;;;;24.43;55.34;100479.41;4995119;28;20508;-51
2022/09/01 11:48:29;;;;;;;1.20;1.10;;;;;;;24.21;55.97;100477.56;4995065;28;20446;-51
2022/09/01 11:51:00;;;;;;;1.63;1.53;;;;;;;24.31;55.33;100476.84;4994877;28;20995;-51
2022/09/01 11:53:27;;;;;;;1.33;1.23;;;;;;;24.54;56.23;100467.66;4994919;28;20832;-51
2022/09/01 11:56:10;;;;;;;2.30;0.80;;;;;;;24.76;54.60;100462.09;4994499;28;20619;-51